Time;durP1;ratioP1;P1;durP2;ratioP2;P2;SDS_P1;SDS_P2;PMS_P1;PMS_P2;Temp;Humidity;BMP_temperature;BMP_pressure;BME280_temperature;BME280_humidity;BME280_pressure;Samples;Min_cycle;Max_cycle;Signal;HPM_P1;HPM_P2
2022/10/04 00:02:26;;;;;;;11.15;6.05;;;12.10;99.90;;;;;;5011367;28;20654;-77
2022/10/04 00:05:00;;;;;;;9.02;5.75;;;12.10;99.90;;;;;;5015602;28;20206;-76
2022/10/04 00:07:28;;;;;;;8.18;6.15;;;12.10;99.90;;;;;;5015507;28;20771;-76
2022/10/04 00:09:59;;;;;;;8.68;5.68;;;12.20;99.90;;;;;;5014947;28;20681;-76
2022/10/04 00:12:28;;;;;;;12.00;7.68;;;12.20;99.90;;;;;;5014356;28;20225;-77
2022/10/04 00:14:59;;;;;;;15.05;7.03;;;12.30;99.90;;;;;;5013474;28;20203;-76
2022/10/04 00:17:30;;;;;;;9.10;5.07;;;12.40;99.90;;;;;;5014724;28;20238;-76
2022/10/04 00:19:58;;;;;;;11.82;5.85;;;12.40;99.90;;;;;;5014760;28;21131;-77
2022/10/04 00:22:27;;;;;;;13.15;7.97;;;12.40;99.90;;;;;;5012473;28;20227;-77
2022/10/04 00:25:21;;;;;;;9.32;5.70;;;12.40;99.90;;;;;;5015041;28;20286;-76
2022/10/04 00:28:27;;;;;;;9.93;6.65;;;12.30;99.90;;;;;;5014856;28;20746;-77
2022/10/04 00:31:21;;;;;;;10.35;6.22;;;12.30;99.90;;;;;;5004687;28;20208;-75
2022/10/04 00:33:52;;;;;;;9.02;6.65;;;12.30;99.90;;;;;;5006903;28;20294;-76
2022/10/04 00:36:40;;;;;;;12.43;6.93;;;12.20;99.90;;;;;;5014887;28;20210;-78
2022/10/04 00:39:38;;;;;;;13.38;7.15;;;12.20;99.90;;;;;;5015197;28;20260;-74
2022/10/04 00:42:52;;;;;;;10.68;6.43;;;12.10;99.90;;;;;;5005136;28;20206;-75
2022/10/04 00:45:28;;;;;;;10.75;7.20;;;12.10;99.90;;;;;;5015177;28;20254;-77
2022/10/04 00:48:24;;;;;;;8.32;5.45;;;12.20;99.90;;;;;;5015235;28;20228;-77
2022/10/04 00:50:58;;;;;;;8.05;5.50;;;12.20;99.90;;;;;;5007293;28;20210;-75
2022/10/04 00:53:45;;;;;;;13.18;7.13;;;12.30;99.90;;;;;;5011735;28;20238;-77
2022/10/04 00:56:17;;;;;;;9.52;7.60;;;12.20;99.90;;;;;;5011943;28;20193;-74
2022/10/04 00:59:03;;;;;;;12.90;7.13;;;12.20;99.90;;;;;;5022197;28;20265;-76
2022/10/04 01:01:34;;;;;;;14.13;7.45;;;12.10;99.90;;;;;;5024725;28;20211;-73
2022/10/04 01:04:06;;;;;;;8.10;7.25;;;12.10;99.90;;;;;;5027819;28;20216;-76
2022/10/04 01:06:36;;;;;;;11.70;7.15;;;12.10;99.90;;;;;;5029526;28;20279;-73
2022/10/04 01:09:07;;;;;;;16.30;8.00;;;12.20;99.90;;;;;;5030478;28;20246;-75
2022/10/04 01:11:38;;;;;;;14.88;7.90;;;12.20;99.90;;;;;;5019425;28;20223;-75
2022/10/04 01:14:09;;;;;;;13.40;7.65;;;12.30;99.90;;;;;;5014269;28;20207;-77
2022/10/04 01:16:37;;;;;;;10.98;6.28;;;12.30;99.90;;;;;;5012572;28;20631;-78
2022/10/04 01:19:26;;;;;;;12.98;8.05;;;12.30;99.90;;;;;;5014011;28;20596;-76
2022/10/04 01:22:03;;;;;;;8.10;5.47;;;12.30;99.90;;;;;;5006206;28;20211;-75
2022/10/04 01:24:36;;;;;;;13.05;6.32;;;12.30;99.90;;;;;;5014069;28;20206;-76
2022/10/04 01:27:03;;;;;;;9.60;7.47;;;12.40;99.90;;;;;;5014882;28;20227;-74
2022/10/04 01:29:32;;;;;;;14.00;7.60;;;12.40;99.90;;;;;;5013658;28;20239;-75
2022/10/04 01:32:00;;;;;;;11.57;7.00;;;12.40;99.90;;;;;;5007452;28;20233;-76
2022/10/04 01:34:31;;;;;;;13.23;7.28;;;12.40;99.90;;;;;;5013391;28;20616;-76
2022/10/04 01:36:59;;;;;;;10.50;7.53;;;12.40;99.90;;;;;;5013441;28;20608;-76
2022/10/04 01:39:28;;;;;;;14.38;6.95;;;12.30;99.90;;;;;;5013656;28;20699;-75
2022/10/04 01:42:03;;;;;;;13.25;8.60;;;12.30;99.90;;;;;;5013394;28;20290;-77
2022/10/04 01:44:36;;;;;;;17.95;8.07;;;12.30;99.90;;;;;;5014026;28;20296;-77
2022/10/04 01:47:08;;;;;;;12.70;8.80;;;12.30;99.90;;;;;;5011515;28;20226;-74
2022/10/04 01:49:38;;;;;;;16.60;9.23;;;12.20;99.90;;;;;;5013176;28;20298;-76
2022/10/04 01:52:10;;;;;;;12.23;8.57;;;12.20;99.90;;;;;;5013737;28;20569;-78
2022/10/04 01:54:41;;;;;;;12.00;8.07;;;12.10;99.90;;;;;;5013874;28;20678;-76
2022/10/04 01:57:16;;;;;;;14.27;8.82;;;12.10;99.90;;;;;;5012294;28;20227;-76
2022/10/04 01:59:49;;;;;;;14.90;9.18;;;12.20;99.90;;;;;;5010992;28;20270;-74
2022/10/04 02:02:24;;;;;;;18.58;8.18;;;12.10;99.90;;;;;;5009261;28;20594;-76
2022/10/04 02:04:55;;;;;;;11.85;9.10;;;12.10;99.90;;;;;;5013790;28;20198;-75
2022/10/04 02:07:25;;;;;;;11.98;8.35;;;12.10;99.90;;;;;;5013384;28;20599;-75
2022/10/04 02:09:58;;;;;;;15.27;7.32;;;12.10;99.90;;;;;;5012787;28;20210;-77
2022/10/04 02:12:30;;;;;;;11.15;9.13;;;12.10;99.90;;;;;;5013293;28;20238;-73
2022/10/04 02:15:01;;;;;;;12.82;8.95;;;12.10;99.90;;;;;;5012756;28;20238;-77
2022/10/04 02:17:31;;;;;;;12.15;9.32;;;12.10;99.90;;;;;;5013195;28;20627;-76
2022/10/04 02:20:00;;;;;;;11.82;8.73;;;12.10;99.90;;;;;;5011385;28;20229;-73
2022/10/04 02:22:27;;;;;;;19.65;8.50;;;12.10;99.90;;;;;;5012939;28;20198;-78
2022/10/04 02:24:57;;;;;;;11.75;8.75;;;12.10;99.90;;;;;;5013256;28;20732;-77
2022/10/04 02:27:30;;;;;;;11.40;7.78;;;12.20;99.90;;;;;;5012516;28;20238;-74
2022/10/04 02:30:01;;;;;;;10.35;8.25;;;12.20;99.90;;;;;;5012631;28;20292;-72
2022/10/04 02:35:16;;;;;;;15.35;7.90;;;12.20;99.90;;;;;;5013219;28;20293;-79
2022/10/04 02:37:43;;;;;;;11.38;7.90;;;12.30;99.90;;;;;;5008406;28;20321;-78
2022/10/04 02:40:13;;;;;;;12.93;8.43;;;12.30;99.90;;;;;;5012673;28;20209;-77
2022/10/04 02:42:47;;;;;;;16.08;7.80;;;12.30;99.90;;;;;;5010768;28;20644;-75
2022/10/04 02:45:19;;;;;;;9.10;8.00;;;12.30;99.90;;;;;;5012521;28;20207;-75
2022/10/04 02:47:51;;;;;;;10.55;8.05;;;12.20;99.90;;;;;;5013324;28;20227;-75
2022/10/04 02:50:27;;;;;;;11.63;7.70;;;12.20;99.90;;;;;;5012206;28;20210;-76
2022/10/04 02:52:58;;;;;;;18.10;8.95;;;12.20;99.90;;;;;;5014691;28;20703;-78
2022/10/04 02:55:29;;;;;;;10.18;8.10;;;12.20;99.90;;;;;;5026128;28;20203;-76
2022/10/04 02:57:59;;;;;;;14.10;9.52;;;12.20;99.90;;;;;;5020339;28;20257;-75
2022/10/04 03:00:28;;;;;;;11.95;8.57;;;12.10;99.90;;;;;;5010878;28;20676;-77
2022/10/04 03:03:16;;;;;;;9.20;8.30;;;12.10;99.90;;;;;;5006238;28;20204;-76
2022/10/04 03:05:45;;;;;;;11.52;8.65;;;12.00;99.90;;;;;;5009574;28;20640;-76
2022/10/04 03:08:13;;;;;;;10.00;7.60;;;12.00;99.90;;;;;;5012795;28;20230;-75
2022/10/04 03:10:43;;;;;;;11.60;9.20;;;12.00;99.90;;;;;;5012388;28;20204;-76
2022/10/04 03:13:13;;;;;;;12.77;10.32;;;12.00;99.90;;;;;;5007688;28;20707;-73
2022/10/04 03:15:40;;;;;;;17.45;8.95;;;11.90;99.90;;;;;;5012954;28;20281;-73
2022/10/04 03:18:10;;;;;;;15.60;8.82;;;11.90;99.90;;;;;;5010961;28;20230;-76
2022/10/04 03:20:38;;;;;;;17.23;9.20;;;11.90;99.90;;;;;;5012470;28;20635;-76
2022/10/04 03:23:06;;;;;;;11.40;8.90;;;11.80;99.90;;;;;;5014762;28;20227;-78
2022/10/04 03:25:43;;;;;;;11.68;9.02;;;11.90;99.90;;;;;;5017130;28;20242;-73
2022/10/04 03:28:12;;;;;;;14.52;8.93;;;11.90;99.90;;;;;;5012278;28;20227;-75
2022/10/04 03:30:44;;;;;;;17.35;8.80;;;11.90;99.90;;;;;;5021766;28;20274;-76
2022/10/04 03:33:23;;;;;;;16.80;10.43;;;11.90;99.90;;;;;;5025664;28;20270;-75
2022/10/04 03:35:53;;;;;;;13.73;9.32;;;11.80;99.90;;;;;;5022776;28;20221;-73
2022/10/04 03:38:22;;;;;;;12.82;9.30;;;11.80;99.90;;;;;;5023936;28;20288;-75
2022/10/04 03:40:53;;;;;;;11.68;8.63;;;11.80;99.90;;;;;;5019524;28;20210;-75
2022/10/04 03:43:26;;;;;;;19.25;8.68;;;11.80;99.90;;;;;;5022130;28;20199;-74
2022/10/04 03:45:54;;;;;;;18.55;9.65;;;11.80;99.90;;;;;;5028908;28;20202;-73
2022/10/04 03:48:30;;;;;;;14.38;9.45;;;11.70;99.90;;;;;;5031526;28;20254;-74
2022/10/04 03:50:58;;;;;;;15.82;8.82;;;11.70;99.90;;;;;;5031444;28;20662;-73
2022/10/04 03:53:31;;;;;;;16.95;8.38;;;11.70;99.90;;;;;;5031465;28;20273;-73
2022/10/04 03:56:00;;;;;;;20.42;10.02;;;11.80;99.90;;;;;;5014505;28;20644;-74
2022/10/04 03:58:31;;;;;;;14.15;8.85;;;11.80;99.90;;;;;;5016100;28;20596;-75
2022/10/04 04:01:11;;;;;;;11.68;8.90;;;11.80;99.90;;;;;;5015304;28;20249;-75
2022/10/04 04:03:50;;;;;;;14.25;8.75;;;11.80;99.90;;;;;;5015904;28;20222;-75
2022/10/04 04:06:19;;;;;;;15.27;10.98;;;11.90;99.90;;;;;;5015951;28;20301;-75
2022/10/04 04:08:51;;;;;;;12.88;10.75;;;11.80;99.90;;;;;;5015378;28;20315;-75
2022/10/04 04:11:23;;;;;;;28.67;12.15;;;11.80;99.90;;;;;;5015016;28;20223;-75
2022/10/04 04:13:59;;;;;;;14.30;10.18;;;11.80;99.90;;;;;;5015129;28;20298;-75
2022/10/04 04:16:26;;;;;;;13.95;9.85;;;11.80;99.90;;;;;;5015385;28;20207;-76
2022/10/04 04:18:59;;;;;;;23.27;10.63;;;11.80;99.90;;;;;;5015134;28;20222;-76
2022/10/04 04:21:27;;;;;;;14.63;11.20;;;11.80;99.90;;;;;;5015385;28;20206;-77
2022/10/04 04:23:59;;;;;;;19.65;10.25;;;11.70;99.90;;;;;;5015233;28;20213;-74
2022/10/04 04:26:34;;;;;;;12.77;10.38;;;11.70;99.90;;;;;;5014048;28;20223;-76
2022/10/04 04:29:09;;;;;;;16.80;9.95;;;11.80;99.90;;;;;;5015079;28;20234;-73
2022/10/04 04:31:42;;;;;;;16.67;9.13;;;11.70;99.90;;;;;;5004794;28;20235;-75
2022/10/04 04:34:21;;;;;;;22.80;12.60;;;11.70;99.90;;;;;;5015084;28;20234;-74
2022/10/04 04:36:48;;;;;;;16.33;10.10;;;11.70;99.90;;;;;;5015199;28;20206;-74
2022/10/04 04:42:05;;;;;;;19.67;11.82;;;11.80;99.90;;;;;;5032017;28;20215;-78
2022/10/04 04:44:34;;;;;;;16.27;11.77;;;11.70;99.90;;;;;;5018423;28;20231;-75
2022/10/04 04:47:07;;;;;;;18.63;13.32;;;11.80;99.90;;;;;;5013200;28;20640;-76
2022/10/04 04:49:37;;;;;;;14.98;10.20;;;11.80;99.90;;;;;;5014707;28;20222;-75
2022/10/04 04:52:04;;;;;;;15.13;11.05;;;11.80;99.90;;;;;;5014999;28;20229;-77
2022/10/04 04:54:31;;;;;;;18.10;12.05;;;11.80;99.90;;;;;;5015191;28;20257;-72
2022/10/04 04:56:59;;;;;;;16.85;11.10;;;11.80;99.90;;;;;;5014986;28;20195;-75
2022/10/04 04:59:27;;;;;;;15.43;11.65;;;11.80;99.90;;;;;;5019286;28;20233;-77
2022/10/04 05:01:56;;;;;;;17.10;10.32;;;11.90;99.90;;;;;;5030893;28;20206;-74
2022/10/04 05:04:23;;;;;;;15.38;11.98;;;12.00;99.90;;;;;;5019647;28;20203;-76
2022/10/04 05:07:01;;;;;;;17.95;11.52;;;12.00;99.90;;;;;;5014138;28;20245;-73
2022/10/04 05:09:31;;;;;;;18.80;12.85;;;12.00;99.90;;;;;;5011924;28;20203;-75
2022/10/04 05:12:06;;;;;;;19.80;11.70;;;12.00;99.90;;;;;;5014072;28;20564;-76
2022/10/04 05:14:35;;;;;;;21.95;13.23;;;12.00;99.90;;;;;;5012807;28;20241;-75
2022/10/04 05:17:05;;;;;;;27.92;12.93;;;12.00;99.90;;;;;;5014488;28;20569;-78
2022/10/04 05:19:35;;;;;;;16.60;12.60;;;12.00;99.90;;;;;;5013993;28;20212;-73
2022/10/04 05:22:09;;;;;;;22.63;11.63;;;12.00;99.90;;;;;;5014599;28;20291;-78
2022/10/04 05:24:39;;;;;;;16.92;12.05;;;12.00;99.90;;;;;;5013801;28;20275;-74
2022/10/04 05:27:15;;;;;;;13.25;11.55;;;12.00;99.90;;;;;;5014523;28;20580;-75
2022/10/04 05:30:02;;;;;;;17.92;13.70;;;12.00;99.90;;;;;;5013410;28;20203;-73
2022/10/04 05:32:44;;;;;;;19.90;13.93;;;11.90;99.90;;;;;;5013435;28;20297;-75
2022/10/04 05:35:16;;;;;;;19.35;14.98;;;11.90;99.90;;;;;;5009722;28;20714;-77
2022/10/04 05:37:57;;;;;;;15.85;14.13;;;11.80;99.90;;;;;;5014353;28;20315;-76
2022/10/04 05:40:33;;;;;;;22.05;14.13;;;11.90;99.90;;;;;;5017209;28;20293;-75
2022/10/04 05:43:00;;;;;;;19.75;13.15;;;11.90;99.90;;;;;;5013503;28;20228;-76
2022/10/04 05:45:29;;;;;;;18.92;13.05;;;11.90;99.90;;;;;;5014534;28;20275;-73
2022/10/04 05:48:00;;;;;;;20.95;12.77;;;11.90;99.90;;;;;;5015096;28;20620;-75
2022/10/04 05:50:31;;;;;;;16.67;11.82;;;11.90;99.90;;;;;;5002328;28;20217;-76
2022/10/04 05:53:16;;;;;;;19.20;12.95;;;12.00;99.90;;;;;;5014040;28;20261;-75
2022/10/04 05:55:57;;;;;;;14.80;11.45;;;12.00;99.90;;;;;;5012758;28;20720;-75
2022/10/04 05:58:47;;;;;;;21.73;13.68;;;12.10;99.90;;;;;;5012411;28;20257;-76
2022/10/04 06:01:27;;;;;;;30.35;17.05;;;12.10;99.90;;;;;;5009636;28;20663;-76
2022/10/04 06:04:24;;;;;;;22.15;15.70;;;12.10;99.90;;;;;;5012066;28;20250;-75
2022/10/04 06:06:58;;;;;;;21.52;12.02;;;12.10;99.90;;;;;;5012920;28;20211;-76
2022/10/04 06:09:56;;;;;;;18.20;13.85;;;12.20;99.90;;;;;;5012341;28;20210;-75
2022/10/04 06:12:36;;;;;;;14.57;12.63;;;12.20;99.90;;;;;;5013660;28;20211;-74
2022/10/04 06:15:18;;;;;;;28.83;13.88;;;12.30;99.90;;;;;;5013944;28;20312;-76
2022/10/04 06:18:11;;;;;;;16.05;13.10;;;12.40;99.90;;;;;;5013919;28;20278;-77
2022/10/04 06:21:08;;;;;;;16.00;11.65;;;12.50;99.90;;;;;;5020545;28;20211;-76
2022/10/04 06:23:43;;;;;;;15.48;13.82;;;12.60;99.90;;;;;;5019313;28;20203;-73
2022/10/04 06:26:13;;;;;;;18.45;12.60;;;12.50;99.90;;;;;;5021016;28;20349;-76
2022/10/04 06:28:47;;;;;;;18.88;13.00;;;12.60;99.90;;;;;;5023772;28;20243;-74
2022/10/04 06:31:47;;;;;;;16.27;12.70;;;12.60;99.90;;;;;;5024409;28;20247;-76
2022/10/04 06:34:38;;;;;;;17.58;12.00;;;12.70;99.90;;;;;;5021281;28;20258;-73
2022/10/04 06:37:28;;;;;;;15.00;11.30;;;13.00;99.90;;;;;;5010943;28;20763;-75
2022/10/04 06:40:09;;;;;;;14.60;11.63;;;13.30;99.90;;;;;;5017057;28;20287;-76
2022/10/04 06:43:01;;;;;;;14.27;10.07;;;13.70;99.90;;;;;;5009800;28;20211;-74
2022/10/04 06:45:58;;;;;;;16.80;11.68;;;13.90;99.90;;;;;;5012749;28;20205;-76
2022/10/04 06:48:54;;;;;;;14.82;10.10;;;13.90;99.90;;;;;;5014045;28;20658;-81
2022/10/04 06:51:34;;;;;;;14.90;10.40;;;13.90;99.90;;;;;;5011550;28;20260;-78
2022/10/04 06:54:19;;;;;;;16.02;11.05;;;13.90;99.90;;;;;;5012711;28;20300;-75
2022/10/04 06:56:58;;;;;;;18.92;11.23;;;14.00;99.90;;;;;;5012904;28;20725;-75
2022/10/04 06:59:49;;;;;;;11.82;8.82;;;14.50;99.90;;;;;;5021006;28;20713;-76
2022/10/04 07:02:21;;;;;;;15.55;9.82;;;15.20;99.90;;;;;;5013950;28;20212;-76
2022/10/04 07:04:56;;;;;;;11.87;8.40;;;15.90;99.90;;;;;;5016295;28;20214;-73
2022/10/04 07:07:35;;;;;;;18.80;10.03;;;16.60;99.90;;;;;;5021368;28;20499;-77
2022/10/04 07:10:20;;;;;;;43.67;9.93;;;17.10;99.90;;;;;;5019609;28;20459;-75
2022/10/04 07:12:53;;;;;;;10.10;7.47;;;17.60;99.90;;;;;;5017495;28;20542;-77
2022/10/04 07:15:24;;;;;;;13.63;8.60;;;18.20;99.90;;;;;;5017101;28;20498;-76
2022/10/04 07:17:53;;;;;;;6.93;6.20;;;18.70;99.90;;;;;;5009236;28;20871;-77
2022/10/04 07:20:26;;;;;;;12.20;6.50;;;19.40;99.90;;;;;;5017271;28;20480;-77
2022/10/04 07:22:58;;;;;;;12.70;7.33;;;19.30;99.90;;;;;;5016035;28;20870;-74
2022/10/04 07:25:30;;;;;;;6.87;5.30;;;19.60;99.90;;;;;;5017121;28;20542;-77
2022/10/04 07:30:53;;;;;;;7.80;5.77;;;21.30;99.90;;;;;;5017946;28;20431;-73
2022/10/04 07:33:23;;;;;;;10.83;7.00;;;21.90;97.70;;;;;;5016699;28;20885;-77
2022/10/04 07:35:54;;;;;;;22.57;6.97;;;22.20;96.00;;;;;;5017398;28;20440;-77
2022/10/04 07:38:26;;;;;;;14.00;7.43;;;21.90;95.50;;;;;;5017057;28;20475;-76
2022/10/04 07:41:07;;;;;;;16.13;7.50;;;21.00;96.70;;;;;;5016873;28;20927;-78
2022/10/04 07:43:45;;;;;;;12.77;8.60;;;20.10;99.40;;;;;;5015805;28;20499;-77
2022/10/04 07:46:19;;;;;;;8.50;7.63;;;18.80;99.90;;;;;;5017379;28;21028;-77
2022/10/04 07:48:48;;;;;;;10.27;7.77;;;18.00;99.90;;;;;;5014791;28;20529;-77
2022/10/04 07:51:24;;;;;;;10.63;8.93;;;17.40;99.90;;;;;;5015692;28;20464;-76
2022/10/04 07:53:56;;;;;;;20.27;9.70;;;17.10;99.90;;;;;;5017095;28;20477;-77
2022/10/04 07:56:31;;;;;;;11.50;7.43;;;16.90;99.90;;;;;;5016561;28;20545;-73
2022/10/04 07:59:23;;;;;;;12.27;6.53;;;16.80;99.90;;;;;;5016356;28;20467;-74
2022/10/04 08:02:02;;;;;;;8.57;7.17;;;17.70;99.90;;;;;;5014656;28;20539;-77
2022/10/04 08:04:43;;;;;;;9.30;5.47;;;18.60;99.90;;;;;;5013945;28;20456;-79
2022/10/04 08:07:19;;;;;;;16.10;5.37;;;19.70;99.90;;;;;;5015628;28;20508;-76
2022/10/04 08:10:01;;;;;;;11.13;6.30;;;20.80;99.90;;;;;;5015877;28;20446;-76
2022/10/04 08:12:41;;;;;;;10.67;6.73;;;21.50;98.90;;;;;;5026096;28;20546;-75
2022/10/04 08:15:29;;;;;;;10.70;5.63;;;21.50;97.50;;;;;;5017330;28;20507;-76
2022/10/04 08:18:06;;;;;;;7.30;5.20;;;21.60;97.50;;;;;;5015552;28;20555;-76
2022/10/04 08:20:39;;;;;;;10.00;5.97;;;22.50;96.00;;;;;;5009748;28;20443;-78
2022/10/04 08:23:33;;;;;;;6.73;4.40;;;23.10;94.00;;;;;;5016238;28;20560;-75
2022/10/04 08:26:12;;;;;;;7.60;4.73;;;23.40;93.10;;;;;;5014688;28;21009;-75
2022/10/04 08:31:47;;;;;;;10.80;5.73;;;24.20;91.30;;;;;;5014394;28;20797;-77
2022/10/04 08:34:30;;;;;;;6.53;4.90;;;24.50;91.10;;;;;;5015971;28;20488;-77
2022/10/04 08:37:04;;;;;;;6.40;4.70;;;25.10;90.60;;;;;;5008769;28;20828;-78
2022/10/04 08:39:47;;;;;;;13.83;5.60;;;24.90;89.50;;;;;;5015053;28;20961;-77
2022/10/04 08:42:45;;;;;;;6.17;4.03;;;24.30;90.30;;;;;;5007977;28;20535;-77
2022/10/04 08:45:43;;;;;;;9.60;5.70;;;25.10;89.60;;;;;;5016187;28;21001;-74
2022/10/04 08:48:46;;;;;;;11.40;4.20;;;25.60;87.20;;;;;;5019129;28;20478;-73
2022/10/04 08:51:49;;;;;;;7.63;4.47;;;25.60;87.60;;;;;;5017995;28;20443;-76
2022/10/04 08:54:39;;;;;;;7.47;3.93;;;26.00;85.90;;;;;;5022062;28;20502;-73
2022/10/04 08:57:34;;;;;;;9.80;5.17;;;25.80;85.00;;;;;;5021283;28;20987;-74
2022/10/04 09:00:14;;;;;;;11.50;4.77;;;25.60;86.30;;;;;;5006071;28;20515;-73
2022/10/04 09:03:19;;;;;;;10.83;4.20;;;25.30;85.20;;;;;;5011560;28;20452;-74
2022/10/04 09:05:56;;;;;;;5.20;4.17;;;25.70;85.30;;;;;;5017296;28;20545;-77
2022/10/04 09:09:17;;;;;;;8.33;5.10;;;24.90;85.00;;;;;;5020251;28;20471;-75
2022/10/04 09:12:18;;;;;;;11.80;4.70;;;25.20;85.50;;;;;;4943839;28;20498;-74
2022/10/04 09:15:14;;;;;;;14.40;5.10;;;25.10;86.60;;;;;;5024428;28;20493;-76
2022/10/04 09:17:53;;;;;;;13.20;5.17;;;24.40;86.20;;;;;;5023716;28;20535;-77
2022/10/04 09:20:41;;;;;;;11.23;6.60;;;24.50;87.60;;;;;;5028596;28;20451;-74
2022/10/04 09:23:52;;;;;;;10.23;5.47;;;24.00;88.60;;;;;;5025962;28;20448;-78
2022/10/04 09:26:22;;;;;;;11.67;5.83;;;23.90;88.10;;;;;;5016012;28;20958;-78
2022/10/04 09:29:12;;;;;;;6.37;4.90;;;24.60;89.50;;;;;;5009773;28;20470;-74
2022/10/04 09:32:12;;;;;;;9.50;5.70;;;25.70;86.80;;;;;;5015452;28;20467;-78
2022/10/04 09:34:54;;;;;;;6.00;4.90;;;25.70;83.60;;;;;;5014475;28;21055;-75
2022/10/04 09:38:05;;;;;;;10.13;4.80;;;25.10;83.50;;;;;;5001450;28;20475;-75
2022/10/04 09:41:08;;;;;;;8.30;4.10;;;24.90;85.50;;;;;;5013487;28;20475;-78
2022/10/04 09:44:07;;;;;;;9.70;5.10;;;25.10;85.60;;;;;;5012969;28;20453;-76
2022/10/04 09:46:58;;;;;;;10.43;5.33;;;24.80;86.40;;;;;;5012821;28;20988;-77
2022/10/04 09:49:44;;;;;;;12.43;5.40;;;24.00;86.70;;;;;;5012317;28;20452;-76
2022/10/04 09:52:27;;;;;;;6.53;3.90;;;24.00;88.30;;;;;;5013594;28;20855;-76
2022/10/04 09:55:06;;;;;;;7.30;3.90;;;24.70;87.10;;;;;;5013466;28;20543;-74
2022/10/04 09:58:02;;;;;;;8.53;3.97;;;25.10;86.00;;;;;;5014156;28;20467;-76
2022/10/04 10:00:35;;;;;;;9.23;3.80;;;25.20;84.40;;;;;;5022968;28;20454;-75
2022/10/04 10:03:40;;;;;;;8.70;4.13;;;25.10;83.50;;;;;;5024241;28;20845;-74
2022/10/04 10:06:39;;;;;;;7.00;3.97;;;25.30;83.30;;;;;;5014046;28;20914;-78
2022/10/04 10:13:38;;;;;;;7.40;3.70;;;25.30;83.00;;;;;;5005737;28;20479;-75
2022/10/04 10:15:47;;;;;;;14.20;4.33;;;25.30;81.90;;;;;;5013168;28;20928;-73
2022/10/04 10:18:25;;;;;;;9.93;3.77;;;25.00;83.60;;;;;;5009144;28;20475;-76
2022/10/04 10:21:04;;;;;;;8.43;4.40;;;24.60;84.60;;;;;;5006289;28;20444;-76
2022/10/04 10:24:10;;;;;;;8.07;4.37;;;24.70;83.60;;;;;;5011407;28;20481;-78
2022/10/04 10:26:56;;;;;;;6.37;4.10;;;23.60;85.70;;;;;;5013358;28;20448;-76
2022/10/04 10:29:58;;;;;;;8.97;4.83;;;23.10;87.70;;;;;;5010921;28;20551;-76
2022/10/04 10:32:45;;;;;;;7.80;4.17;;;21.70;90.10;;;;;;5012874;28;20451;-74
2022/10/04 10:35:32;;;;;;;7.53;4.37;;;21.60;91.00;;;;;;5007297;28;20487;-80
2022/10/04 10:38:33;;;;;;;9.70;5.10;;;21.60;91.70;;;;;;5013380;28;20467;-78
2022/10/04 10:41:39;;;;;;;6.90;3.97;;;21.00;92.10;;;;;;5011611;28;20452;-76
2022/10/04 10:44:32;;;;;;;8.27;4.50;;;21.40;92.70;;;;;;4989593;28;20486;-74
2022/10/04 10:47:30;;;;;;;9.70;3.83;;;21.60;92.40;;;;;;5008417;28;20452;-73
2022/10/04 10:53:16;;;;;;;10.53;5.40;;;22.00;91.90;;;;;;4965925;29;20486;-79
2022/10/04 10:59:37;;;;;;;5.23;3.63;;;21.50;92.30;;;;;;4955735;29;20434;-79
2022/10/04 11:02:28;;;;;;;10.23;4.70;;;21.50;93.00;;;;;;4939392;29;20467;-79
2022/10/04 11:05:07;;;;;;;5.90;3.73;;;21.50;92.40;;;;;;4944578;29;20909;-82
2022/10/04 11:07:50;;;;;;;7.53;2.97;;;20.80;91.40;;;;;;4941309;29;20541;-81
2022/10/04 11:10:53;;;;;;;5.57;3.83;;;20.60;92.70;;;;;;4945259;29;20488;-79
2022/10/04 11:13:53;;;;;;;4.53;2.67;;;20.60;92.20;;;;;;4937861;29;20495;-79
2022/10/04 11:16:46;;;;;;;5.80;3.03;;;20.20;92.80;;;;;;4948780;29;20526;-78
2022/10/04 11:19:43;;;;;;;5.20;3.50;;;20.40;94.00;;;;;;4947380;29;20444;-80
2022/10/04 11:22:48;;;;;;;8.10;3.40;;;20.40;93.20;;;;;;4948460;29;20457;-80
2022/10/04 11:25:41;;;;;;;7.90;3.03;;;20.40;93.30;;;;;;4947731;29;20447;-81
2022/10/04 11:28:15;;;;;;;9.33;3.40;;;20.50;93.80;;;;;;4932890;29;20484;-79
2022/10/04 11:31:12;;;;;;;8.20;3.60;;;20.30;93.60;;;;;;4932967;29;20478;-80
2022/10/04 11:34:07;;;;;;;7.23;4.17;;;20.20;94.00;;;;;;4937130;29;20867;-81
2022/10/04 11:36:50;;;;;;;8.80;3.30;;;20.10;94.30;;;;;;4944618;29;20541;-78
2022/10/04 11:39:41;;;;;;;8.27;3.70;;;20.00;94.30;;;;;;4945042;29;20577;-81
2022/10/04 11:42:20;;;;;;;7.73;3.33;;;20.10;94.70;;;;;;4937575;29;20487;-79
2022/10/04 11:45:35;;;;;;;5.73;3.60;;;20.10;94.50;;;;;;4945619;29;20477;-80
2022/10/04 11:48:16;;;;;;;9.60;4.80;;;19.90;94.90;;;;;;4932207;29;20487;-79
2022/10/04 11:51:13;;;;;;;9.00;4.30;;;19.80;95.20;;;;;;4947983;29;20547;-79
2022/10/04 11:54:09;;;;;;;9.30;4.70;;;19.70;96.10;;;;;;4919656;29;20514;-79
2022/10/04 11:57:01;;;;;;;5.43;3.70;;;19.90;95.20;;;;;;4950369;29;20490;-80
2022/10/04 11:59:44;;;;;;;7.33;4.37;;;19.60;95.50;;;;;;4942394;29;20451;-82
2022/10/04 12:02:56;;;;;;;12.23;5.43;;;19.60;96.00;;;;;;4952619;29;20475;-80
2022/10/04 12:05:52;;;;;;;18.97;3.87;;;19.50;95.50;;;;;;4886378;29;20527;-78
2022/10/04 12:08:28;;;;;;;7.80;4.07;;;19.50;95.90;;;;;;4945265;29;20526;-78
2022/10/04 12:14:30;;;;;;;11.30;6.33;;;19.50;95.30;;;;;;4949373;29;20573;-79
2022/10/04 12:17:28;;;;;;;6.20;3.90;;;19.30;96.10;;;;;;4943119;29;20452;-79
2022/10/04 12:20:13;;;;;;;12.27;4.47;;;19.30;96.40;;;;;;4945895;29;20550;-79
2022/10/04 12:23:05;;;;;;;8.07;4.23;;;19.20;95.90;;;;;;4944280;29;20534;-78
2022/10/04 12:25:47;;;;;;;11.83;4.83;;;19.20;96.20;;;;;;4948797;29;20439;-79
2022/10/04 12:28:40;;;;;;;11.50;5.00;;;19.30;96.20;;;;;;4932391;29;20524;-81
2022/10/04 12:31:25;;;;;;;8.70;4.23;;;19.40;96.50;;;;;;4931330;29;20487;-79
2022/10/04 12:34:00;;;;;;;7.00;4.23;;;19.40;96.00;;;;;;4942553;29;20490;-79
2022/10/04 12:36:53;;;;;;;6.63;4.17;;;19.60;95.20;;;;;;4948343;29;20554;-80
2022/10/04 12:39:40;;;;;;;9.53;4.40;;;19.60;95.60;;;;;;4950398;29;20451;-82
2022/10/04 12:42:23;;;;;;;9.83;5.27;;;19.60;95.80;;;;;;4957989;28;20447;-80
2022/10/04 12:45:19;;;;;;;8.30;5.10;;;19.50;95.80;;;;;;4954886;28;20524;-82
2022/10/04 12:48:05;;;;;;;8.60;4.40;;;19.50;95.50;;;;;;4941700;28;20463;-84
2022/10/04 12:50:46;;;;;;;9.57;4.70;;;19.60;95.60;;;;;;4954927;29;20479;-81
2022/10/04 12:53:23;;;;;;;8.17;4.83;;;19.50;95.50;;;;;;4945357;29;20476;-80
2022/10/04 12:56:08;;;;;;;7.43;4.43;;;19.30;95.90;;;;;;4945289;29;20510;-79
2022/10/04 12:59:00;;;;;;;6.43;3.90;;;19.20;95.90;;;;;;4945179;29;20532;-80
2022/10/04 13:01:41;;;;;;;10.03;4.03;;;19.20;96.80;;;;;;4936406;29;20496;-79
2022/10/04 13:04:23;;;;;;;9.23;4.70;;;19.30;96.20;;;;;;4937818;29;20448;-79
2022/10/04 13:07:08;;;;;;;9.70;4.33;;;19.30;96.00;;;;;;4932880;29;20477;-80
2022/10/04 13:09:48;;;;;;;7.73;5.03;;;19.30;96.10;;;;;;4933369;29;20448;-80
2022/10/04 13:12:30;;;;;;;8.70;4.80;;;19.40;96.00;;;;;;4939265;29;20970;-84
2022/10/04 13:15:20;;;;;;;5.17;4.10;;;19.40;95.60;;;;;;4935536;29;20492;-81
2022/10/04 13:17:56;;;;;;;8.30;3.30;;;19.20;95.50;;;;;;4944371;29;20471;-82
2022/10/04 13:20:38;;;;;;;4.50;3.23;;;19.10;95.80;;;;;;4946052;29;21008;-80
2022/10/04 13:23:17;;;;;;;5.90;4.43;;;19.10;95.50;;;;;;4939119;29;20471;-81
2022/10/04 13:26:08;;;;;;;8.17;4.30;;;19.20;95.70;;;;;;4935680;29;20440;-79
2022/10/04 13:28:45;;;;;;;6.43;4.47;;;19.20;95.00;;;;;;4944448;29;20467;-82
2022/10/04 13:31:23;;;;;;;6.30;3.93;;;19.10;95.10;;;;;;4930338;29;20873;-80
2022/10/04 13:33:57;;;;;;;11.87;5.30;;;19.10;95.80;;;;;;4936404;29;20447;-80
2022/10/04 13:36:37;;;;;;;5.03;3.33;;;19.10;95.30;;;;;;4943303;29;20516;-79
2022/10/04 13:39:29;;;;;;;7.67;3.87;;;19.10;95.50;;;;;;4939360;29;20449;-81
2022/10/04 13:42:27;;;;;;;10.30;4.90;;;19.20;95.70;;;;;;4946202;29;20512;-81
2022/10/04 13:45:16;;;;;;;6.93;3.80;;;19.30;96.30;;;;;;4940327;29;20455;-81
2022/10/04 13:48:16;;;;;;;6.20;3.53;;;19.30;96.40;;;;;;4942114;29;20459;-80
2022/10/04 13:50:57;;;;;;;6.60;4.30;;;19.30;96.00;;;;;;4943476;29;20479;-81
2022/10/04 13:56:50;;;;;;;7.00;4.10;;;19.40;95.30;;;;;;4943864;29;20518;-78
2022/10/04 13:59:24;;;;;;;10.40;4.70;;;19.30;95.40;;;;;;4940018;29;20443;-79
2022/10/04 14:02:18;;;;;;;6.23;4.03;;;19.30;95.50;;;;;;4944741;29;20453;-81
2022/10/04 14:05:22;;;;;;;7.33;3.70;;;19.40;95.60;;;;;;4934759;29;20505;-79
2022/10/04 14:08:32;;;;;;;7.20;3.63;;;19.40;95.50;;;;;;4936105;29;20553;-80
2022/10/04 14:11:42;;;;;;;3.60;2.60;;;19.40;95.10;;;;;;4920073;29;20523;-81
2022/10/04 14:14:43;;;;;;;9.60;3.40;;;19.30;95.40;;;;;;4938391;29;20485;-79
2022/10/04 14:17:26;;;;;;;6.30;4.07;;;19.30;94.70;;;;;;4936029;29;20516;-79